KSBM/SBM METAR and TAF weather

Enter ICAO airport designator
Station Type Date Time Source
KSBM METAR 2020/01/24 02:53 UTC NOAA

KSBM 240253Z AUTO 10005KT 3SM UP BR OVC005 01/00 A3005 RMK AO2 UPB46 SLP184 P0000 60000 T00110000 56003


Station Type Date Time Source
KSBM Decoded METAR 2020/01/24 02:53 UTC NOAA

SHEBOYGAN CO MEMORIAL AIRPORT , WI, United States (KSBM) 43-47N 87-51W 232M
Jan 23, 2020 - 09:53 PM EST / 2020.01.24 0253 UTC
Wind: from the E (100 degrees) at 6 MPH (5 KT):0
Visibility: 3 mile(s):0
Sky conditions: overcast
Weather: precipitation; mist
Precipitation last hour: A trace
Temperature: 34.0 F (1.1 C)
Windchill: 28 F (-2 C):1
Dew Point: 32.0 F (0.0 C)
Relative Humidity: 92%
Pressure (altimeter): 30.05 in. Hg (1017 hPa)
Pressure tendency: 0.01 inches (0.3 hPa) lower than three hours ago
ob: KSBM 240253Z AUTO 10005KT 3SM UP BR OVC005 01/00 A3005 RMK AO2 UPB46 SLP184 P0000 60000 T00110000 56003
cycle: 3

Station Type Date Time Source
KSBM TAF UTC NOAA

Error!

Example: see airport list